createdAt,value
2023-10-29T00:00:33.671Z,6.80
2023-10-29T00:03:24.152Z,6.81
2023-10-29T00:05:53.731Z,6.81
2023-10-29T00:08:22.847Z,6.81
2023-10-29T00:10:52.078Z,6.82
2023-10-29T00:13:21.158Z,6.82
2023-10-29T00:15:50.322Z,6.82
2023-10-29T00:18:20.012Z,6.83
2023-10-29T00:20:50.808Z,6.82
2023-10-29T00:23:19.765Z,6.82
2023-10-29T00:25:49.559Z,6.83
2023-10-29T00:28:18.473Z,6.81
2023-10-29T00:30:47.630Z,6.82
2023-10-29T00:33:16.627Z,6.82
2023-10-29T00:35:46.148Z,6.82
2023-10-29T00:38:16.420Z,6.81
2023-10-29T00:40:46.115Z,6.80
2023-10-29T00:43:15.633Z,6.81
2023-10-29T00:45:45.624Z,6.80
2023-10-29T00:48:14.739Z,6.81
2023-10-29T00:50:44.070Z,6.81
2023-10-29T00:53:13.244Z,6.79
2023-10-29T00:55:44.372Z,6.80
2023-10-29T00:58:14.286Z,6.79
2023-10-29T01:00:43.501Z,6.79
2023-10-29T01:03:11.514Z,6.79
2023-10-29T01:05:41.411Z,6.79
2023-10-29T01:08:10.720Z,6.79
2023-10-29T01:10:40.095Z,6.79
2023-10-29T01:13:10.455Z,6.79
2023-10-29T01:15:39.787Z,6.79
2023-10-29T01:18:09.040Z,6.78
2023-10-29T01:20:39.286Z,6.77
2023-10-29T01:23:08.243Z,6.78
2023-10-29T01:25:40.111Z,6.78
2023-10-29T01:28:10.453Z,6.77
2023-10-29T01:30:39.869Z,6.77
2023-10-29T01:33:08.749Z,6.77
2023-10-29T01:35:38.087Z,6.77
2023-10-29T01:38:06.938Z,6.77
2023-10-29T01:40:36.894Z,6.77
2023-10-29T01:43:05.812Z,6.77
2023-10-29T01:45:39.660Z,6.76
2023-10-29T01:48:08.703Z,6.75
2023-10-29T01:50:37.966Z,6.76
2023-10-29T01:53:06.978Z,6.76
2023-10-29T01:55:37.858Z,6.77
2023-10-29T01:58:06.870Z,6.75
2023-10-29T02:00:37.400Z,6.77
2023-10-29T02:03:06.349Z,6.73
2023-10-29T02:05:35.947Z,6.72
2023-10-29T02:08:05.121Z,6.73
2023-10-29T02:10:34.277Z,6.74
2023-10-29T02:13:03.289Z,6.74
2023-10-29T02:15:32.560Z,6.73
2023-10-29T02:18:03.101Z,6.73
2023-10-29T02:20:32.454Z,6.72
2023-10-29T02:23:03.029Z,6.69
2023-10-29T02:25:32.269Z,6.70
2023-10-29T02:28:01.238Z,6.69
2023-10-29T02:30:30.486Z,6.70
2023-10-29T02:32:59.438Z,6.66
2023-10-29T02:35:31.049Z,6.66
2023-10-29T02:38:00.114Z,6.66
2023-10-29T02:40:30.646Z,6.65
2023-10-29T02:43:00.032Z,6.63
2023-10-29T02:45:31.218Z,6.60
2023-10-29T02:48:00.351Z,6.59
2023-10-29T02:50:29.615Z,6.59
2023-10-29T02:52:58.713Z,6.57
2023-10-29T02:55:27.865Z,6.57
2023-10-29T02:57:58.405Z,6.56
2023-10-29T03:00:27.644Z,6.56
2023-10-29T03:02:56.818Z,6.56
2023-10-29T03:05:26.261Z,6.53
2023-10-29T03:07:55.396Z,6.52
2023-10-29T03:10:24.612Z,6.53
2023-10-29T03:12:53.545Z,6.52
2023-10-29T03:15:24.201Z,6.51
2023-10-29T03:17:53.199Z,6.49
2023-10-29T03:20:22.735Z,6.49
2023-10-29T03:22:51.668Z,6.49
2023-10-29T03:25:22.566Z,6.48
2023-10-29T03:27:52.173Z,6.48
2023-10-29T03:33:52.356Z,6.44
2023-10-29T03:36:21.771Z,6.44
2023-10-29T03:38:50.921Z,6.44
2023-10-29T03:41:20.761Z,6.44
2023-10-29T03:43:50.988Z,6.43
2023-10-29T03:46:21.481Z,6.40
2023-10-29T03:48:50.602Z,6.41
2023-10-29T03:51:21.349Z,6.40
2023-10-29T03:53:50.255Z,6.41
2023-10-29T03:56:19.579Z,6.39
2023-10-29T03:58:48.944Z,6.39
2023-10-29T04:01:19.276Z,6.40
2023-10-29T04:03:48.697Z,6.40
2023-10-29T04:06:18.091Z,6.40
2023-10-29T04:08:48.524Z,6.39
2023-10-29T04:11:17.765Z,6.38
2023-10-29T04:13:48.135Z,6.38
2023-10-29T04:16:18.761Z,6.36
2023-10-29T04:18:47.850Z,6.29
2023-10-29T04:21:17.002Z,6.32
2023-10-29T04:23:46.178Z,6.32
2023-10-29T04:26:16.825Z,6.32
2023-10-29T04:28:46.558Z,6.32
2023-10-29T04:31:15.755Z,6.32
2023-10-29T04:33:46.453Z,6.31
2023-10-29T04:36:20.061Z,6.29
2023-10-29T04:38:49.162Z,6.29
2023-10-29T04:41:20.116Z,6.30
2023-10-29T04:43:49.556Z,6.31
2023-10-29T04:46:20.025Z,6.30
2023-10-29T04:48:49.590Z,6.28
2023-10-29T04:51:18.796Z,6.27
2023-10-29T04:53:47.822Z,6.27
2023-10-29T04:56:17.016Z,6.28
2023-10-29T04:58:47.352Z,6.29
2023-10-29T05:01:19.077Z,6.28
2023-10-29T05:03:48.413Z,6.27
2023-10-29T05:06:21.432Z,6.27
2023-10-29T05:08:51.095Z,6.28
2023-10-29T05:11:20.522Z,6.27
2023-10-29T05:13:50.808Z,6.29
2023-10-29T05:16:21.615Z,6.28
2023-10-29T05:18:50.849Z,6.28
2023-10-29T05:21:21.765Z,6.28
2023-10-29T05:23:50.722Z,6.27
2023-10-29T05:26:21.693Z,6.28
2023-10-29T05:28:53.632Z,6.25
2023-10-29T05:31:23.128Z,6.22
2023-10-29T05:33:52.040Z,6.22
2023-10-29T05:36:21.205Z,6.22
2023-10-29T05:38:50.112Z,6.21
2023-10-29T05:41:19.609Z,6.24
2023-10-29T05:43:48.469Z,6.23
2023-10-29T05:46:19.528Z,6.21
2023-10-29T05:48:48.548Z,6.16
2023-10-29T05:51:19.408Z,6.14
2023-10-29T05:53:48.994Z,6.17
2023-10-29T05:56:19.372Z,6.17
2023-10-29T05:58:48.248Z,6.13
2023-10-29T06:01:20.273Z,6.14
2023-10-29T06:03:49.474Z,6.16
2023-10-29T06:06:18.917Z,6.15
2023-10-29T06:08:47.803Z,6.17
2023-10-29T06:11:17.119Z,6.17
2023-10-29T06:13:46.112Z,6.19
2023-10-29T06:16:15.375Z,6.21
2023-10-29T06:18:45.668Z,6.17
2023-10-29T06:21:15.083Z,6.17
2023-10-29T06:23:44.026Z,6.17
2023-10-29T06:26:13.326Z,6.20
2023-10-29T06:28:42.913Z,6.21
2023-10-29T06:31:12.263Z,6.20
2023-10-29T06:33:42.710Z,6.23
2023-10-29T06:36:13.332Z,6.28
2023-10-29T06:38:42.339Z,6.29
2023-10-29T06:41:11.588Z,6.28
2023-10-29T06:43:40.638Z,6.29
2023-10-29T06:46:09.798Z,6.30
2023-10-29T06:48:42.967Z,6.32
2023-10-29T06:51:15.233Z,6.26
2023-10-29T06:53:47.192Z,6.30
2023-10-29T06:56:16.371Z,6.32
2023-10-29T06:58:45.378Z,6.35
2023-10-29T07:01:14.884Z,6.32
2023-10-29T07:03:45.278Z,6.35
2023-10-29T07:06:17.400Z,6.39
2023-10-29T07:08:49.018Z,6.44
2023-10-29T07:11:18.394Z,6.43
2023-10-29T07:13:47.226Z,6.47
2023-10-29T07:16:18.101Z,6.50
2023-10-29T07:18:47.114Z,6.48
2023-10-29T07:21:17.765Z,6.54
2023-10-29T07:23:46.865Z,6.60
2023-10-29T07:26:16.105Z,6.59
2023-10-29T07:28:45.051Z,6.62
2023-10-29T07:31:15.520Z,6.62
2023-10-29T07:33:45.685Z,6.66
2023-10-29T07:36:14.967Z,6.68
2023-10-29T07:38:45.422Z,6.74
2023-10-29T07:41:19.210Z,6.76
2023-10-29T07:43:48.304Z,6.71
2023-10-29T07:46:17.589Z,6.75
2023-10-29T07:48:46.609Z,6.77
2023-10-29T07:51:15.745Z,6.73
2023-10-29T07:53:46.048Z,6.74
2023-10-29T07:56:16.922Z,6.73
2023-10-29T07:58:47.819Z,6.73
2023-10-29T08:01:17.889Z,6.71
2023-10-29T08:03:49.829Z,6.71
2023-10-29T08:06:19.333Z,6.64
2023-10-29T08:08:49.603Z,6.69
2023-10-29T08:11:20.169Z,6.72
2023-10-29T08:13:49.348Z,6.75
2023-10-29T08:16:18.637Z,6.71
2023-10-29T08:18:47.824Z,6.72
2023-10-29T08:21:18.653Z,6.75
2023-10-29T08:23:49.264Z,6.80
2023-10-29T08:26:18.481Z,6.79
2023-10-29T08:28:49.504Z,6.83
2023-10-29T08:31:18.681Z,6.78
2023-10-29T08:33:47.958Z,6.84
2023-10-29T08:36:17.924Z,6.83
2023-10-29T08:38:46.935Z,6.76
2023-10-29T08:41:17.997Z,6.83
2023-10-29T08:43:47.005Z,6.79
2023-10-29T08:46:16.228Z,6.85
2023-10-29T08:48:45.386Z,6.91
2023-10-29T08:51:16.104Z,6.95
2023-10-29T08:53:45.244Z,6.95
2023-10-29T08:56:15.371Z,6.86
2023-10-29T08:58:45.764Z,6.85
2023-10-29T09:01:15.787Z,6.87
2023-10-29T09:03:44.857Z,6.81
2023-10-29T09:06:14.627Z,6.85
2023-10-29T09:08:43.571Z,6.88
2023-10-29T09:11:14.888Z,6.86
2023-10-29T09:13:45.159Z,6.94
2023-10-29T09:16:14.614Z,6.92
2023-10-29T09:18:43.950Z,6.89
2023-10-29T09:21:13.750Z,6.85
2023-10-29T09:23:42.634Z,6.88
2023-10-29T09:26:11.956Z,6.85
2023-10-29T09:28:40.829Z,6.93
2023-10-29T09:31:15.659Z,6.94
2023-10-29T09:33:44.750Z,6.93
2023-10-29T09:36:14.631Z,6.94
2023-10-29T09:38:44.276Z,6.94
2023-10-29T09:41:13.453Z,6.96
2023-10-29T09:43:43.205Z,6.99
2023-10-29T09:46:16.048Z,7.01
2023-10-29T09:48:45.499Z,6.98
2023-10-29T09:51:14.813Z,6.99
2023-10-29T09:53:43.871Z,6.98
2023-10-29T09:56:13.901Z,6.94
2023-10-29T09:58:43.513Z,7.05
2023-10-29T10:01:12.779Z,7.04
2023-10-29T10:03:43.354Z,7.06
2023-10-29T10:06:13.650Z,7.09
2023-10-29T10:08:42.690Z,7.14
2023-10-29T10:11:22.284Z,7.09
2023-10-29T10:13:51.419Z,7.15
2023-10-29T10:16:21.657Z,7.14
2023-10-29T10:18:56.096Z,7.10
2023-10-29T10:21:26.319Z,7.11
2023-10-29T10:23:56.573Z,7.17
2023-10-29T10:26:29.571Z,7.21
2023-10-29T10:28:59.671Z,7.19
2023-10-29T10:31:30.426Z,7.23
2023-10-29T10:34:13.940Z,7.25
2023-10-29T10:36:43.421Z,7.31
2023-10-29T10:39:13.196Z,7.32
2023-10-29T10:41:44.589Z,7.36
2023-10-29T10:44:14.256Z,7.34
2023-10-29T10:46:48.320Z,7.38
2023-10-29T10:49:19.144Z,7.42
2023-10-29T10:51:50.060Z,7.45
2023-10-29T10:54:20.107Z,7.45
2023-10-29T10:56:52.430Z,7.46
2023-10-29T10:59:22.088Z,7.49
2023-10-29T11:01:51.565Z,7.53
2023-10-29T11:04:23.016Z,7.55
2023-10-29T11:06:53.098Z,7.49
2023-10-29T11:09:24.200Z,7.51
2023-10-29T11:11:55.182Z,7.57
2023-10-29T11:14:25.196Z,7.61
2023-10-29T11:16:55.692Z,7.65
2023-10-29T11:19:43.307Z,7.65
2023-10-29T11:22:16.302Z,7.69
2023-10-29T11:24:45.938Z,7.65
2023-10-29T11:27:34.262Z,7.63
2023-10-29T11:30:13.920Z,7.62
2023-10-29T11:32:43.837Z,7.66
2023-10-29T11:35:20.623Z,7.62
2023-10-29T11:37:51.027Z,7.66
2023-10-29T11:40:30.168Z,7.66
2023-10-29T11:43:16.279Z,7.67
2023-10-29T11:45:59.266Z,7.65
2023-10-29T11:48:30.437Z,7.67
2023-10-29T11:51:32.767Z,7.72
2023-10-29T11:54:05.514Z,7.69
2023-10-29T11:56:35.586Z,7.69
2023-10-29T11:59:08.156Z,7.72
2023-10-29T12:01:40.257Z,7.73
2023-10-29T12:04:11.216Z,7.73
2023-10-29T12:06:44.453Z,7.73
2023-10-29T12:09:18.604Z,7.77
2023-10-29T12:11:47.758Z,7.74
2023-10-29T12:14:17.418Z,7.76
2023-10-29T12:16:47.062Z,7.76
2023-10-29T12:19:16.592Z,7.80
2023-10-29T12:21:52.261Z,7.83
2023-10-29T12:24:24.250Z,7.82
2023-10-29T12:26:54.070Z,7.84
2023-10-29T12:29:23.448Z,7.84
2023-10-29T12:31:52.475Z,7.85
2023-10-29T12:34:22.340Z,7.93
2023-10-29T12:36:54.234Z,7.88
2023-10-29T12:39:26.592Z,7.92
2023-10-29T12:41:55.640Z,7.98
2023-10-29T12:44:24.855Z,8.00
2023-10-29T12:46:53.871Z,8.00
2023-10-29T12:49:33.665Z,7.98
2023-10-29T12:52:06.469Z,7.97
2023-10-29T12:54:38.182Z,7.98
2023-10-29T12:57:13.436Z,8.00
2023-10-29T12:59:44.280Z,8.04
2023-10-29T13:02:22.403Z,8.03
2023-10-29T13:04:53.066Z,8.06
2023-10-29T13:07:22.290Z,8.09
2023-10-29T13:09:53.670Z,8.13
2023-10-29T13:12:23.186Z,8.14
2023-10-29T13:14:52.362Z,8.17
2023-10-29T13:17:21.461Z,8.22
2023-10-29T13:19:50.953Z,8.25
2023-10-29T13:22:19.992Z,8.25
2023-10-29T13:24:49.292Z,8.27
2023-10-29T13:27:21.159Z,8.33
2023-10-29T13:29:50.442Z,8.33
2023-10-29T13:32:19.359Z,8.36
2023-10-29T13:34:50.119Z,8.39
2023-10-29T13:37:19.546Z,8.40
2023-10-29T13:39:48.740Z,8.43
2023-10-29T13:42:20.002Z,8.47
2023-10-29T13:44:49.576Z,8.52
2023-10-29T13:47:20.158Z,8.46
2023-10-29T13:49:49.428Z,8.50
2023-10-29T13:52:18.356Z,8.52
2023-10-29T13:54:48.732Z,8.56
2023-10-29T13:57:19.188Z,8.60
2023-10-29T13:59:48.742Z,8.64
2023-10-29T14:02:17.705Z,8.70
2023-10-29T14:04:47.285Z,8.72
2023-10-29T14:07:16.375Z,8.75
2023-10-29T14:09:46.978Z,8.78
2023-10-29T14:12:16.040Z,8.81
2023-10-29T14:14:47.804Z,8.84
2023-10-29T14:17:17.146Z,8.88
2023-10-29T14:19:46.766Z,8.91
2023-10-29T14:22:15.753Z,8.97
2023-10-29T14:24:44.919Z,9.00
2023-10-29T14:27:13.931Z,9.02
2023-10-29T14:29:43.136Z,9.03
2023-10-29T14:32:13.499Z,9.08
2023-10-29T14:34:42.678Z,9.08
2023-10-29T14:37:11.923Z,9.10
2023-10-29T14:39:42.824Z,9.16
2023-10-29T14:42:11.794Z,9.17
2023-10-29T14:44:41.002Z,9.22
2023-10-29T14:47:09.904Z,9.24
2023-10-29T14:49:40.520Z,9.31
2023-10-29T14:52:09.406Z,9.35
2023-10-29T14:54:38.615Z,9.36
2023-10-29T14:57:22.056Z,9.41
2023-10-29T14:59:55.813Z,9.50
2023-10-29T15:02:24.969Z,9.52
2023-10-29T15:04:56.777Z,9.56
2023-10-29T15:07:26.873Z,9.58
2023-10-29T15:09:57.213Z,9.62
2023-10-29T15:12:26.848Z,9.64
2023-10-29T15:14:56.013Z,9.66
2023-10-29T15:17:26.505Z,9.70
2023-10-29T15:19:59.041Z,9.74
2023-10-29T15:22:28.549Z,9.77
2023-10-29T15:26:36.097Z,9.74
2023-10-29T15:29:05.587Z,9.73
2023-10-29T15:31:35.176Z,9.71
2023-10-29T15:34:04.855Z,9.70
2023-10-29T15:36:34.037Z,9.70
2023-10-29T15:39:03.548Z,9.70
2023-10-29T15:41:35.537Z,9.68
2023-10-29T15:44:05.579Z,9.68
2023-10-29T15:46:37.416Z,9.69
2023-10-29T15:49:06.997Z,9.70
2023-10-29T15:51:36.272Z,9.67
2023-10-29T15:54:05.985Z,9.67
2023-10-29T15:56:38.056Z,9.68
2023-10-29T15:59:08.697Z,9.65
2023-10-29T16:01:37.999Z,9.65
2023-10-29T16:04:07.295Z,9.62
2023-10-29T16:06:38.010Z,9.61
2023-10-29T16:09:07.542Z,9.61
2023-10-29T16:11:39.383Z,9.60
2023-10-29T16:14:09.281Z,9.60
2023-10-29T16:16:38.611Z,9.58
2023-10-29T16:19:08.077Z,9.56
2023-10-29T16:21:37.560Z,9.56
2023-10-29T16:24:07.577Z,9.53
2023-10-29T16:26:38.197Z,9.52
2023-10-29T16:29:07.707Z,9.51
2023-10-29T16:31:36.779Z,9.51
2023-10-29T16:34:06.896Z,9.48
2023-10-29T16:36:36.308Z,9.47
2023-10-29T16:39:07.108Z,9.44
2023-10-29T16:41:38.310Z,9.42
2023-10-29T16:44:08.023Z,9.41
2023-10-29T16:46:38.440Z,9.39
2023-10-29T16:49:08.061Z,9.37
2023-10-29T16:51:37.268Z,9.36
2023-10-29T16:54:07.023Z,9.34
2023-10-29T16:56:37.606Z,9.31
2023-10-29T16:59:07.308Z,9.30
2023-10-29T17:01:39.493Z,9.29
2023-10-29T17:04:09.424Z,9.26
2023-10-29T17:06:38.863Z,9.25
2023-10-29T17:09:08.420Z,9.25
2023-10-29T17:11:41.858Z,9.23
2023-10-29T17:14:15.507Z,9.20
2023-10-29T17:16:47.779Z,9.20
2023-10-29T17:19:17.389Z,9.18
2023-10-29T17:21:46.849Z,9.17
2023-10-29T17:24:16.286Z,9.14
2023-10-29T17:26:47.107Z,9.11
2023-10-29T17:29:17.127Z,9.12
2023-10-29T17:31:46.096Z,9.08
2023-10-29T17:34:16.948Z,9.06
2023-10-29T17:36:47.149Z,9.07
2023-10-29T17:39:21.300Z,9.06
2023-10-29T17:41:54.015Z,9.05
2023-10-29T17:44:24.015Z,9.03
2023-10-29T17:46:52.975Z,9.03
2023-10-29T17:49:25.911Z,9.00
2023-10-29T17:51:55.268Z,9.00
2023-10-29T17:54:28.176Z,8.97
2023-10-29T17:56:58.856Z,8.95
2023-10-29T17:59:28.412Z,8.93
2023-10-29T18:01:57.816Z,8.93
2023-10-29T18:04:27.343Z,8.91
2023-10-29T18:07:00.319Z,8.89
2023-10-29T18:09:32.538Z,8.88
2023-10-29T18:12:03.981Z,8.87
2023-10-29T18:14:33.694Z,8.86
2023-10-29T18:17:02.927Z,8.84
2023-10-29T18:19:33.503Z,8.81
2023-10-29T18:22:03.085Z,8.78
2023-10-29T18:24:34.082Z,8.78
2023-10-29T18:27:11.213Z,8.76
2023-10-29T18:29:51.918Z,8.74
2023-10-29T18:32:40.179Z,8.73
2023-10-29T18:35:21.996Z,8.70
2023-10-29T18:37:57.734Z,8.69
2023-10-29T18:40:31.392Z,8.68
2023-10-29T18:43:09.817Z,8.67
2023-10-29T18:45:48.743Z,8.65
2023-10-29T18:48:45.840Z,8.63
2023-10-29T18:51:25.550Z,8.62
2023-10-29T18:54:07.254Z,8.61
2023-10-29T18:56:44.090Z,8.59
2023-10-29T18:59:20.330Z,8.57
2023-10-29T19:02:05.894Z,8.56
2023-10-29T19:04:39.262Z,8.53
2023-10-29T19:07:13.135Z,8.52
2023-10-29T19:09:55.610Z,8.50
2023-10-29T19:12:29.834Z,8.49
2023-10-29T19:15:01.488Z,8.46
2023-10-29T19:17:42.021Z,8.45
2023-10-29T19:20:18.162Z,8.43
2023-10-29T19:22:57.416Z,8.40
2023-10-29T19:25:41.895Z,8.38
2023-10-29T19:28:26.035Z,8.37
2023-10-29T19:31:22.882Z,8.37
2023-10-29T19:33:59.750Z,8.36
2023-10-29T19:36:42.174Z,8.36
2023-10-29T19:39:22.416Z,8.35
2023-10-29T19:41:58.939Z,8.35
2023-10-29T19:44:36.689Z,8.35
2023-10-29T19:47:14.186Z,8.36
2023-10-29T19:49:53.002Z,8.37
2023-10-29T19:52:36.404Z,8.37
2023-10-29T19:55:15.065Z,8.39
2023-10-29T19:57:50.541Z,8.40
2023-10-29T20:00:25.335Z,8.43
2023-10-29T20:02:56.338Z,8.43
2023-10-29T20:05:26.030Z,8.46
2023-10-29T20:07:55.189Z,8.49
2023-10-29T20:10:25.287Z,8.51
2023-10-29T20:12:54.554Z,8.52
2023-10-29T20:15:27.951Z,8.53
2023-10-29T20:17:59.632Z,8.56
2023-10-29T20:20:31.267Z,8.58
2023-10-29T20:23:00.711Z,8.61
2023-10-29T20:25:30.267Z,8.60
2023-10-29T20:27:59.585Z,8.63
2023-10-29T20:30:29.406Z,8.67
2023-10-29T20:33:00.730Z,8.68
2023-10-29T20:35:35.112Z,8.73
2023-10-29T20:38:04.710Z,8.78
2023-10-29T20:40:34.355Z,8.81
2023-10-29T20:43:03.597Z,8.85
2023-10-29T20:45:33.130Z,8.87
2023-10-29T20:48:05.208Z,8.90
2023-10-29T20:50:34.630Z,8.92
2023-10-29T20:53:03.813Z,8.94
2023-10-29T20:55:33.069Z,8.96
2023-10-29T20:58:05.551Z,8.97
2023-10-29T21:00:35.051Z,9.00
2023-10-29T21:03:06.346Z,9.01
2023-10-29T21:05:38.854Z,9.04
2023-10-29T21:08:15.027Z,9.06
2023-10-29T21:10:49.740Z,9.09
2023-10-29T21:13:22.162Z,9.11
2023-10-29T21:15:56.853Z,9.13
2023-10-29T21:18:30.545Z,9.16
2023-10-29T21:21:04.857Z,9.19
2023-10-29T21:23:38.533Z,9.25
2023-10-29T21:26:15.545Z,9.30
2023-10-29T21:28:46.369Z,9.37
2023-10-29T21:31:20.185Z,9.44
2023-10-29T21:34:07.864Z,9.54
2023-10-29T21:36:39.123Z,9.64
2023-10-29T21:39:09.204Z,9.69
2023-10-29T21:41:38.812Z,9.79
2023-10-29T21:44:08.076Z,9.89
2023-10-29T21:46:37.756Z,9.95
2023-10-29T21:49:08.830Z,10.01
2023-10-29T21:51:38.399Z,10.08
2023-10-29T21:54:07.772Z,10.15
2023-10-29T21:56:36.974Z,10.19
2023-10-29T21:59:06.255Z,10.24
2023-10-29T22:01:35.645Z,10.29
2023-10-29T22:04:05.617Z,10.38
2023-10-29T22:06:36.791Z,10.44
2023-10-29T22:09:06.137Z,10.49
2023-10-29T22:11:36.045Z,10.52
2023-10-29T22:14:05.582Z,10.57
2023-10-29T22:16:35.371Z,10.62
2023-10-29T22:19:04.597Z,10.68
2023-10-29T22:21:38.080Z,10.73
2023-10-29T22:24:09.686Z,10.77
2023-10-29T22:26:39.404Z,10.81
2023-10-29T22:29:08.564Z,10.83
2023-10-29T22:31:38.045Z,10.88
2023-10-29T22:34:07.980Z,10.91
2023-10-29T22:36:39.594Z,10.96
2023-10-29T22:39:08.853Z,11.03
2023-10-29T22:41:38.231Z,11.07
2023-10-29T22:44:07.963Z,11.10
2023-10-29T22:46:37.642Z,11.11
2023-10-29T22:49:06.842Z,11.18
2023-10-29T22:51:37.590Z,11.25
2023-10-29T22:54:07.352Z,11.26
2023-10-29T22:56:36.796Z,11.29
2023-10-29T22:59:05.991Z,11.37
2023-10-29T23:01:35.493Z,11.40
2023-10-29T23:04:04.864Z,11.45
2023-10-29T23:06:34.545Z,11.47
2023-10-29T23:09:07.010Z,11.47
2023-10-29T23:11:36.513Z,11.51
2023-10-29T23:14:06.056Z,11.54
2023-10-29T23:16:35.678Z,11.58
2023-10-29T23:19:04.757Z,11.60
2023-10-29T23:21:34.034Z,11.63
2023-10-29T23:24:05.677Z,11.67
2023-10-29T23:26:35.346Z,11.72
2023-10-29T23:29:05.365Z,11.74
2023-10-29T23:31:34.834Z,11.80
2023-10-29T23:34:04.206Z,11.80
2023-10-29T23:36:33.768Z,11.83
2023-10-29T23:39:04.648Z,11.82
2023-10-29T23:41:34.126Z,11.80
2023-10-29T23:44:04.217Z,11.84
2023-10-29T23:46:33.659Z,11.81
2023-10-29T23:49:02.938Z,11.85
2023-10-29T23:51:32.332Z,11.88
2023-10-29T23:54:01.538Z,11.91
2023-10-29T23:56:32.142Z,11.91
2023-10-29T23:59:01.798Z,11.94
